sensor_id;sensor_type;location;lat;lon;timestamp;pressure;altitude;pressure_sealevel;temperature;humidity
37610;BME280;23457;51.966;8.230;2023-09-30T00:00:03;101769.59;;;14.69;100.00
37610;BME280;23457;51.966;8.230;2023-09-30T00:02:37;101772.03;;;14.59;100.00
37610;BME280;23457;51.966;8.230;2023-09-30T00:05:04;101776.50;;;14.64;100.00
37610;BME280;23457;51.966;8.230;2023-09-30T00:07:31;101772.91;;;14.59;100.00
37610;BME280;23457;51.966;8.230;2023-09-30T00:09:58;101783.50;;;14.65;100.00
37610;BME280;23457;51.966;8.230;2023-09-30T00:12:26;101783.50;;;14.65;100.00
37610;BME280;23457;51.966;8.230;2023-09-30T00:14:53;101777.25;;;14.57;100.00
37610;BME280;23457;51.966;8.230;2023-09-30T00:17:20;101777.00;;;14.42;100.00
37610;BME280;23457;51.966;8.230;2023-09-30T00:19:47;101773.25;;;14.28;100.00
37610;BME280;23457;51.966;8.230;2023-09-30T00:22:14;101770.69;;;14.31;100.00
37610;BME280;23457;51.966;8.230;2023-09-30T00:24:40;101781.22;;;14.37;100.00
37610;BME280;23457;51.966;8.230;2023-09-30T00:27:07;101785.38;;;14.24;100.00
37610;BME280;23457;51.966;8.230;2023-09-30T00:29:34;101786.38;;;14.31;100.00
37610;BME280;23457;51.966;8.230;2023-09-30T00:32:02;101794.75;;;14.13;100.00
37610;BME280;23457;51.966;8.230;2023-09-30T00:34:33;101789.84;;;14.30;100.00
37610;BME280;23457;51.966;8.230;2023-09-30T00:36:59;101793.94;;;14.16;100.00
37610;BME280;23457;51.966;8.230;2023-09-30T00:39:26;101798.44;;;14.24;100.00
37610;BME280;23457;51.966;8.230;2023-09-30T00:41:57;101794.78;;;14.15;100.00
37610;BME280;23457;51.966;8.230;2023-09-30T00:44:26;101809.66;;;14.17;100.00
37610;BME280;23457;51.966;8.230;2023-09-30T00:46:54;101803.84;;;14.35;100.00
37610;BME280;23457;51.966;8.230;2023-09-30T00:49:22;101813.94;;;14.14;100.00
37610;BME280;23457;51.966;8.230;2023-09-30T00:51:49;101808.53;;;14.05;100.00
37610;BME280;23457;51.966;8.230;2023-09-30T00:54:17;101806.13;;;14.15;100.00
37610;BME280;23457;51.966;8.230;2023-09-30T00:56:45;101805.19;;;14.12;100.00
37610;BME280;23457;51.966;8.230;2023-09-30T00:59:13;101806.56;;;13.94;100.00
37610;BME280;23457;51.966;8.230;2023-09-30T01:01:44;101800.47;;;13.94;100.00
37610;BME280;23457;51.966;8.230;2023-09-30T01:04:12;101799.59;;;13.93;100.00
37610;BME280;23457;51.966;8.230;2023-09-30T01:06:39;101795.22;;;13.91;100.00
37610;BME280;23457;51.966;8.230;2023-09-30T01:09:06;101808.25;;;13.89;100.00
37610;BME280;23457;51.966;8.230;2023-09-30T01:11:33;101810.09;;;13.96;100.00
37610;BME280;23457;51.966;8.230;2023-09-30T01:14:03;101802.28;;;13.96;100.00
37610;BME280;23457;51.966;8.230;2023-09-30T01:16:30;101801.13;;;13.82;100.00
37610;BME280;23457;51.966;8.230;2023-09-30T01:18:56;101791.06;;;14.02;100.00
37610;BME280;23457;51.966;8.230;2023-09-30T01:21:24;101784.19;;;14.09;100.00
37610;BME280;23457;51.966;8.230;2023-09-30T01:23:54;101783.06;;;13.94;100.00
37610;BME280;23457;51.966;8.230;2023-09-30T01:26:21;101790.97;;;13.97;100.00
37610;BME280;23457;51.966;8.230;2023-09-30T01:28:49;101794.13;;;13.81;100.00
37610;BME280;23457;51.966;8.230;2023-09-30T01:31:15;101795.06;;;13.85;100.00
37610;BME280;23457;51.966;8.230;2023-09-30T01:33:42;101791.88;;;13.99;100.00
37610;BME280;23457;51.966;8.230;2023-09-30T01:36:09;101785.63;;;13.91;100.00
37610;BME280;23457;51.966;8.230;2023-09-30T01:38:36;101793.47;;;13.91;100.00
37610;BME280;23457;51.966;8.230;2023-09-30T01:41:03;101804.81;;;13.93;100.00
37610;BME280;23457;51.966;8.230;2023-09-30T01:43:29;101800.44;;;13.91;100.00
37610;BME280;23457;51.966;8.230;2023-09-30T01:45:56;101807.19;;;13.81;100.00
37610;BME280;23457;51.966;8.230;2023-09-30T01:48:24;101805.69;;;13.92;100.00
37610;BME280;23457;51.966;8.230;2023-09-30T01:50:51;101803.16;;;13.97;100.00
37610;BME280;23457;51.966;8.230;2023-09-30T01:53:18;101793.28;;;13.82;100.00
37610;BME280;23457;51.966;8.230;2023-09-30T01:55:44;101788.88;;;13.78;100.00
37610;BME280;23457;51.966;8.230;2023-09-30T01:58:11;101793.84;;;13.66;100.00
37610;BME280;23457;51.966;8.230;2023-09-30T02:00:38;101796.03;;;13.46;100.00
37610;BME280;23457;51.966;8.230;2023-09-30T02:03:05;101800.63;;;13.58;100.00
37610;BME280;23457;51.966;8.230;2023-09-30T02:05:32;101813.16;;;13.74;100.00
37610;BME280;23457;51.966;8.230;2023-09-30T02:07:59;101821.97;;;13.79;100.00
37610;BME280;23457;51.966;8.230;2023-09-30T02:10:25;101826.34;;;13.82;100.00
37610;BME280;23457;51.966;8.230;2023-09-30T02:12:53;101819.75;;;13.57;100.00
37610;BME280;23457;51.966;8.230;2023-09-30T02:15:19;101832.19;;;13.69;100.00
37610;BME280;23457;51.966;8.230;2023-09-30T02:17:48;101832.28;;;13.73;100.00
37610;BME280;23457;51.966;8.230;2023-09-30T02:20:16;101829.81;;;13.79;100.00
37610;BME280;23457;51.966;8.230;2023-09-30T02:22:45;101838.88;;;13.56;100.00
37610;BME280;23457;51.966;8.230;2023-09-30T02:25:13;101840.34;;;13.42;100.00
37610;BME280;23457;51.966;8.230;2023-09-30T02:27:43;101828.06;;;13.38;100.00
37610;BME280;23457;51.966;8.230;2023-09-30T02:30:12;101826.56;;;13.49;100.00
37610;BME280;23457;51.966;8.230;2023-09-30T02:32:41;101824.97;;;13.57;100.00
37610;BME280;23457;51.966;8.230;2023-09-30T02:35:11;101828.56;;;13.62;100.00
37610;BME280;23457;51.966;8.230;2023-09-30T02:37:38;101839.09;;;13.65;100.00
37610;BME280;23457;51.966;8.230;2023-09-30T02:40:06;101833.63;;;13.53;100.00
37610;BME280;23457;51.966;8.230;2023-09-30T02:42:40;101833.66;;;13.56;100.00
37610;BME280;23457;51.966;8.230;2023-09-30T02:45:08;101832.03;;;13.61;100.00
37610;BME280;23457;51.966;8.230;2023-09-30T02:47:36;101836.19;;;13.51;100.00
37610;BME280;23457;51.966;8.230;2023-09-30T02:50:05;101837.75;;;13.45;100.00
37610;BME280;23457;51.966;8.230;2023-09-30T02:52:33;101836.84;;;13.43;100.00
37610;BME280;23457;51.966;8.230;2023-09-30T02:55:02;101834.41;;;13.50;100.00
37610;BME280;23457;51.966;8.230;2023-09-30T02:57:29;101831.03;;;13.54;100.00
37610;BME280;23457;51.966;8.230;2023-09-30T02:59:56;101824.84;;;13.51;100.00
37610;BME280;23457;51.966;8.230;2023-09-30T03:02:23;101822.22;;;13.49;100.00
37610;BME280;23457;51.966;8.230;2023-09-30T03:04:50;101823.09;;;13.50;100.00
37610;BME280;23457;51.966;8.230;2023-09-30T03:07:19;101807.28;;;13.44;100.00
37610;BME280;23457;51.966;8.230;2023-09-30T03:09:46;101807.84;;;13.29;100.00
37610;BME280;23457;51.966;8.230;2023-09-30T03:12:14;101812.22;;;13.32;100.00
37610;BME280;23457;51.966;8.230;2023-09-30T03:14:40;101815.94;;;13.04;100.00
37610;BME280;23457;51.966;8.230;2023-09-30T03:17:07;101825.34;;;12.97;100.00
37610;BME280;23457;51.966;8.230;2023-09-30T03:19:38;101820.47;;;13.12;100.00
37610;BME280;23457;51.966;8.230;2023-09-30T03:22:05;101832.78;;;13.16;100.00
37610;BME280;23457;51.966;8.230;2023-09-30T03:24:41;101841.66;;;13.24;100.00
37610;BME280;23457;51.966;8.230;2023-09-30T03:27:07;101848.66;;;13.25;100.00
37610;BME280;23457;51.966;8.230;2023-09-30T03:29:38;101847.50;;;12.78;100.00
37610;BME280;23457;51.966;8.230;2023-09-30T03:32:05;101861.03;;;12.64;100.00
37610;BME280;23457;51.966;8.230;2023-09-30T03:34:33;101840.78;;;12.88;100.00
37610;BME280;23457;51.966;8.230;2023-09-30T03:37:03;101847.34;;;13.08;100.00
37610;BME280;23457;51.966;8.230;2023-09-30T03:39:33;101851.50;;;13.00;100.00
37610;BME280;23457;51.966;8.230;2023-09-30T03:42:00;101840.03;;;12.93;100.00
37610;BME280;23457;51.966;8.230;2023-09-30T03:44:27;101833.31;;;12.69;100.00
37610;BME280;23457;51.966;8.230;2023-09-30T03:46:55;101830.53;;;12.61;100.00
37610;BME280;23457;51.966;8.230;2023-09-30T03:49:23;101825.59;;;12.72;100.00
37610;BME280;23457;51.966;8.230;2023-09-30T03:51:50;101827.31;;;12.71;100.00
37610;BME280;23457;51.966;8.230;2023-09-30T03:54:17;101835.00;;;12.67;100.00
37610;BME280;23457;51.966;8.230;2023-09-30T03:56:47;101844.31;;;12.57;100.00
37610;BME280;23457;51.966;8.230;2023-09-30T03:59:14;101844.91;;;12.45;100.00
37610;BME280;23457;51.966;8.230;2023-09-30T04:01:45;101842.72;;;12.29;100.00
37610;BME280;23457;51.966;8.230;2023-09-30T04:04:13;101837.44;;;12.26;100.00
37610;BME280;23457;51.966;8.230;2023-09-30T04:06:40;101837.41;;;12.25;100.00
37610;BME280;23457;51.966;8.230;2023-09-30T04:09:07;101835.69;;;12.25;100.00
37610;BME280;23457;51.966;8.230;2023-09-30T04:11:37;101834.63;;;12.18;100.00
37610;BME280;23457;51.966;8.230;2023-09-30T04:14:07;101842.66;;;12.26;100.00
37610;BME280;23457;51.966;8.230;2023-09-30T04:16:35;101842.97;;;12.38;100.00
37610;BME280;23457;51.966;8.230;2023-09-30T04:19:02;101834.22;;;12.36;100.00
37610;BME280;23457;51.966;8.230;2023-09-30T04:21:29;101834.59;;;12.50;100.00
37610;BME280;23457;51.966;8.230;2023-09-30T04:23:58;101840.66;;;12.49;100.00
37610;BME280;23457;51.966;8.230;2023-09-30T04:26:25;101827.75;;;12.53;100.00
37610;BME280;23457;51.966;8.230;2023-09-30T04:28:52;101838.59;;;12.37;100.00
37610;BME280;23457;51.966;8.230;2023-09-30T04:31:20;101840.38;;;12.38;100.00
37610;BME280;23457;51.966;8.230;2023-09-30T04:33:52;101832.28;;;12.29;100.00
37610;BME280;23457;51.966;8.230;2023-09-30T04:36:20;101837.72;;;12.37;100.00
37610;BME280;23457;51.966;8.230;2023-09-30T04:38:47;101838.66;;;12.39;100.00
37610;BME280;23457;51.966;8.230;2023-09-30T04:41:14;101848.63;;;12.22;100.00
37610;BME280;23457;51.966;8.230;2023-09-30T04:43:42;101839.22;;;12.27;100.00
37610;BME280;23457;51.966;8.230;2023-09-30T04:46:10;101850.66;;;12.34;100.00
37610;BME280;23457;51.966;8.230;2023-09-30T04:48:40;101855.97;;;12.37;100.00
37610;BME280;23457;51.966;8.230;2023-09-30T04:51:07;101851.56;;;12.34;100.00
37610;BME280;23457;51.966;8.230;2023-09-30T04:53:35;101859.78;;;12.18;100.00
37610;BME280;23457;51.966;8.230;2023-09-30T04:56:03;101856.25;;;12.16;100.00
37610;BME280;23457;51.966;8.230;2023-09-30T04:58:29;101854.66;;;11.90;100.00
37610;BME280;23457;51.966;8.230;2023-09-30T05:00:57;101856.19;;;12.13;100.00
37610;BME280;23457;51.966;8.230;2023-09-30T05:03:24;101858.72;;;12.10;100.00
37610;BME280;23457;51.966;8.230;2023-09-30T05:05:52;101861.47;;;12.16;100.00
37610;BME280;23457;51.966;8.230;2023-09-30T05:08:44;101864.91;;;12.13;100.00
37610;BME280;23457;51.966;8.230;2023-09-30T05:11:11;101861.31;;;12.10;100.00
37610;BME280;23457;51.966;8.230;2023-09-30T05:13:38;101856.66;;;11.98;100.00
37610;BME280;23457;51.966;8.230;2023-09-30T05:16:04;101873.41;;;12.08;100.00
37610;BME280;23457;51.966;8.230;2023-09-30T05:18:32;101871.03;;;12.15;100.00
37610;BME280;23457;51.966;8.230;2023-09-30T05:20:59;101878.53;;;12.05;100.00
37610;BME280;23457;51.966;8.230;2023-09-30T05:23:26;101873.84;;;11.93;100.00
37610;BME280;23457;51.966;8.230;2023-09-30T05:25:52;101870.50;;;11.97;100.00
37610;BME280;23457;51.966;8.230;2023-09-30T05:28:22;101868.09;;;12.05;100.00
37610;BME280;23457;51.966;8.230;2023-09-30T05:30:49;101864.84;;;12.12;100.00
37610;BME280;23457;51.966;8.230;2023-09-30T05:33:17;101864.75;;;12.09;100.00
37610;BME280;23457;51.966;8.230;2023-09-30T05:35:44;101866.69;;;12.16;100.00
37610;BME280;23457;51.966;8.230;2023-09-30T05:38:10;101864.50;;;12.00;100.00
37610;BME280;23457;51.966;8.230;2023-09-30T05:40:37;101859.84;;;12.19;100.00
37610;BME280;23457;51.966;8.230;2023-09-30T05:43:03;101859.78;;;12.18;100.00
37610;BME280;23457;51.966;8.230;2023-09-30T05:45:32;101856.34;;;12.19;100.00
37610;BME280;23457;51.966;8.230;2023-09-30T05:48:02;101864.53;;;12.33;100.00
37610;BME280;23457;51.966;8.230;2023-09-30T05:50:33;101879.44;;;12.37;100.00
37610;BME280;23457;51.966;8.230;2023-09-30T05:53:00;101889.13;;;12.42;100.00
37610;BME280;23457;51.966;8.230;2023-09-30T05:55:27;101891.69;;;12.39;100.00
37610;BME280;23457;51.966;8.230;2023-09-30T05:57:54;101896.22;;;12.15;100.00
37610;BME280;23457;51.966;8.230;2023-09-30T06:00:22;101903.69;;;12.34;100.00
37610;BME280;23457;51.966;8.230;2023-09-30T06:02:51;101892.63;;;12.43;100.00
37610;BME280;23457;51.966;8.230;2023-09-30T06:05:21;101899.38;;;12.35;100.00
37610;BME280;23457;51.966;8.230;2023-09-30T06:07:52;101892.88;;;12.20;100.00
37610;BME280;23457;51.966;8.230;2023-09-30T06:10:22;101896.22;;;12.15;100.00
37610;BME280;23457;51.966;8.230;2023-09-30T06:12:51;101912.88;;;12.22;100.00
37610;BME280;23457;51.966;8.230;2023-09-30T06:15:23;101913.44;;;12.41;100.00
37610;BME280;23457;51.966;8.230;2023-09-30T06:17:54;101910.50;;;12.29;100.00
37610;BME280;23457;51.966;8.230;2023-09-30T06:20:21;101918.53;;;12.37;100.00
37610;BME280;23457;51.966;8.230;2023-09-30T06:22:53;101931.63;;;12.38;100.00
37610;BME280;23457;51.966;8.230;2023-09-30T06:25:20;101925.22;;;12.27;100.00
37610;BME280;23457;51.966;8.230;2023-09-30T06:27:48;101925.72;;;12.14;100.00
37610;BME280;23457;51.966;8.230;2023-09-30T06:30:16;101927.56;;;12.18;100.00
37610;BME280;23457;51.966;8.230;2023-09-30T06:32:43;101930.09;;;12.16;100.00
37610;BME280;23457;51.966;8.230;2023-09-30T06:35:12;101929.59;;;12.28;100.00
37610;BME280;23457;51.966;8.230;2023-09-30T06:37:39;101924.63;;;12.37;100.00
37610;BME280;23457;51.966;8.230;2023-09-30T06:40:07;101923.94;;;12.13;100.00
37610;BME280;23457;51.966;8.230;2023-09-30T06:42:38;101919.88;;;12.23;100.00
37610;BME280;23457;51.966;8.230;2023-09-30T06:45:07;101925.38;;;12.33;100.00
37610;BME280;23457;51.966;8.230;2023-09-30T06:47:40;101923.75;;;12.37;100.00
37610;BME280;23457;51.966;8.230;2023-09-30T06:50:12;101929.31;;;12.49;100.00
37610;BME280;23457;51.966;8.230;2023-09-30T06:52:43;101936.16;;;12.45;100.00
37610;BME280;23457;51.966;8.230;2023-09-30T06:55:12;101936.63;;;12.62;100.00
37610;BME280;23457;51.966;8.230;2023-09-30T06:57:42;101935.09;;;12.70;100.00
37610;BME280;23457;51.966;8.230;2023-09-30T07:00:11;101937.78;;;12.73;100.00
37610;BME280;23457;51.966;8.230;2023-09-30T07:02:47;101932.69;;;12.78;100.00
37610;BME280;23457;51.966;8.230;2023-09-30T07:05:14;101939.13;;;12.92;100.00
37610;BME280;23457;51.966;8.230;2023-09-30T07:07:41;101938.16;;;12.87;100.00
37610;BME280;23457;51.966;8.230;2023-09-30T07:10:12;101943.81;;;13.05;100.00
37610;BME280;23457;51.966;8.230;2023-09-30T07:12:39;101946.66;;;13.13;100.00
37610;BME280;23457;51.966;8.230;2023-09-30T07:15:07;101943.91;;;13.08;100.00
37610;BME280;23457;51.966;8.230;2023-09-30T07:17:33;101951.81;;;13.11;100.00
37610;BME280;23457;51.966;8.230;2023-09-30T07:20:01;101955.78;;;13.30;100.00
37610;BME280;23457;51.966;8.230;2023-09-30T07:22:29;101960.06;;;13.26;100.00
37610;BME280;23457;51.966;8.230;2023-09-30T07:24:58;101954.31;;;13.40;100.00
37610;BME280;23457;51.966;8.230;2023-09-30T07:27:25;101959.56;;;13.41;100.00
37610;BME280;23457;51.966;8.230;2023-09-30T07:29:54;101963.34;;;13.19;100.00
37610;BME280;23457;51.966;8.230;2023-09-30T07:32:21;101952.97;;;13.57;100.00
37610;BME280;23457;51.966;8.230;2023-09-30T07:34:51;101955.84;;;13.69;100.00
37610;BME280;23457;51.966;8.230;2023-09-30T07:37:18;101962.00;;;13.71;100.00
37610;BME280;23457;51.966;8.230;2023-09-30T07:39:47;101956.13;;;13.81;100.00
37610;BME280;23457;51.966;8.230;2023-09-30T07:42:13;101949.50;;;13.97;100.00
37610;BME280;23457;51.966;8.230;2023-09-30T07:44:41;101960.34;;;13.75;100.00
37610;BME280;23457;51.966;8.230;2023-09-30T07:47:08;101968.41;;;13.85;100.00
37610;BME280;23457;51.966;8.230;2023-09-30T07:49:35;101978.31;;;13.98;100.00
37610;BME280;23457;51.966;8.230;2023-09-30T07:52:04;101971.59;;;14.11;100.00
37610;BME280;23457;51.966;8.230;2023-09-30T07:54:30;101979.53;;;14.14;100.00
37610;BME280;23457;51.966;8.230;2023-09-30T07:56:58;101979.03;;;14.33;100.00
37610;BME280;23457;51.966;8.230;2023-09-30T07:59:26;101981.69;;;14.35;100.00
37610;BME280;23457;51.966;8.230;2023-09-30T08:01:53;101981.19;;;14.11;100.00
37610;BME280;23457;51.966;8.230;2023-09-30T08:04:20;101983.75;;;14.48;100.00
37610;BME280;23457;51.966;8.230;2023-09-30T08:06:47;101981.97;;;14.47;100.00
37610;BME280;23457;51.966;8.230;2023-09-30T08:09:14;101984.16;;;14.69;100.00
37610;BME280;23457;51.966;8.230;2023-09-30T08:11:41;101991.06;;;14.64;100.00
37610;BME280;23457;51.966;8.230;2023-09-30T08:14:07;101984.72;;;15.00;100.00
37610;BME280;23457;51.966;8.230;2023-09-30T08:16:36;101983.03;;;15.02;100.00
37610;BME280;23457;51.966;8.230;2023-09-30T08:19:04;101983.09;;;15.05;100.00
37610;BME280;23457;51.966;8.230;2023-09-30T08:21:30;101994.47;;;15.09;100.00
37610;BME280;23457;51.966;8.230;2023-09-30T08:23:57;101997.13;;;15.10;100.00
37610;BME280;23457;51.966;8.230;2023-09-30T08:26:24;102001.81;;;15.28;100.00
37610;BME280;23457;51.966;8.230;2023-09-30T08:28:51;101994.25;;;15.45;100.00
37610;BME280;23457;51.966;8.230;2023-09-30T08:31:18;101998.47;;;15.36;100.00
37610;BME280;23457;51.966;8.230;2023-09-30T08:33:45;101990.78;;;15.47;100.00
37610;BME280;23457;51.966;8.230;2023-09-30T08:36:12;101993.66;;;15.61;100.00
37610;BME280;23457;51.966;8.230;2023-09-30T08:38:40;101992.91;;;15.68;100.00
37610;BME280;23457;51.966;8.230;2023-09-30T08:41:07;101997.31;;;15.72;100.00
37610;BME280;23457;51.966;8.230;2023-09-30T08:43:37;101998.44;;;15.88;100.00
37610;BME280;23457;51.966;8.230;2023-09-30T08:46:06;102003.63;;;15.86;100.00
37610;BME280;23457;51.966;8.230;2023-09-30T08:48:34;102000.38;;;16.01;100.00
37610;BME280;23457;51.966;8.230;2023-09-30T08:51:01;101996.78;;;15.94;100.00
37610;BME280;23457;51.966;8.230;2023-09-30T08:53:29;101998.72;;;16.07;100.00
37610;BME280;23457;51.966;8.230;2023-09-30T08:55:57;102003.28;;;16.21;100.00
37610;BME280;23457;51.966;8.230;2023-09-30T08:58:27;102004.53;;;16.52;100.00
37610;BME280;23457;51.966;8.230;2023-09-30T09:00:55;102014.06;;;16.43;100.00
37610;BME280;23457;51.966;8.230;2023-09-30T09:03:23;102009.69;;;16.44;100.00
37610;BME280;23457;51.966;8.230;2023-09-30T09:05:54;102009.94;;;16.62;100.00
37610;BME280;23457;51.966;8.230;2023-09-30T09:08:24;102009.94;;;16.62;100.00
37610;BME280;23457;51.966;8.230;2023-09-30T09:10:56;102006.50;;;16.66;100.00
37610;BME280;23457;51.966;8.230;2023-09-30T09:13:27;102000.44;;;16.75;100.00
37610;BME280;23457;51.966;8.230;2023-09-30T09:16:09;102014.72;;;16.97;100.00
37610;BME280;23457;51.966;8.230;2023-09-30T09:18:36;102004.19;;;16.98;100.00
37610;BME280;23457;51.966;8.230;2023-09-30T09:23:41;101997.31;;;17.09;100.00
37610;BME280;23457;51.966;8.230;2023-09-30T09:26:09;101994.75;;;17.17;100.00
37610;BME280;23457;51.966;8.230;2023-09-30T09:28:37;101998.31;;;17.22;100.00
37610;BME280;23457;51.966;8.230;2023-09-30T09:31:27;102010.66;;;17.35;100.00
37610;BME280;23457;51.966;8.230;2023-09-30T09:33:55;102007.19;;;17.35;100.00
37610;BME280;23457;51.966;8.230;2023-09-30T09:36:44;102005.44;;;17.38;100.00
37610;BME280;23457;51.966;8.230;2023-09-30T09:39:11;101995.88;;;17.45;100.00
37610;BME280;23457;51.966;8.230;2023-09-30T09:41:53;102001.31;;;17.66;100.00
37610;BME280;23457;51.966;8.230;2023-09-30T09:44:21;101999.69;;;17.80;100.00
37610;BME280;23457;51.966;8.230;2023-09-30T09:46:49;102000.59;;;17.90;100.00
37610;BME280;23457;51.966;8.230;2023-09-30T09:49:18;102000.56;;;17.81;96.38
37610;BME280;23457;51.966;8.230;2023-09-30T09:51:49;101995.59;;;18.36;95.38
37610;BME280;23457;51.966;8.230;2023-09-30T09:54:16;101990.28;;;18.23;96.37
37610;BME280;23457;51.966;8.230;2023-09-30T09:56:44;101989.47;;;18.35;94.24
37610;BME280;23457;51.966;8.230;2023-09-30T09:59:12;101978.91;;;18.32;92.55
37610;BME280;23457;51.966;8.230;2023-09-30T10:01:40;101986.81;;;18.34;97.74
37610;BME280;23457;51.966;8.230;2023-09-30T10:04:10;101988.41;;;18.01;94.04
37610;BME280;23457;51.966;8.230;2023-09-30T10:06:38;101991.13;;;18.19;96.35
37610;BME280;23457;51.966;8.230;2023-09-30T10:09:10;101983.19;;;18.07;95.39
37610;BME280;23457;51.966;8.230;2023-09-30T10:11:38;101990.28;;;18.26;94.79
37610;BME280;23457;51.966;8.230;2023-09-30T10:14:06;101990.38;;;18.48;93.72
37610;BME280;23457;51.966;8.230;2023-09-30T10:16:46;101996.66;;;18.80;90.74
37610;BME280;23457;51.966;8.230;2023-09-30T10:19:20;101994.06;;;18.99;89.18
37610;BME280;23457;51.966;8.230;2023-09-30T10:27:56;102001.88;;;18.67;90.37
37610;BME280;23457;51.966;8.230;2023-09-30T10:30:22;101997.59;;;19.23;86.61
37610;BME280;23457;51.966;8.230;2023-09-30T10:40:42;101980.72;;;18.45;87.52
37610;BME280;23457;51.966;8.230;2023-09-30T10:45:55;101980.84;;;18.79;83.35
37610;BME280;23457;51.966;8.230;2023-09-30T10:50:56;101980.88;;;19.00;83.41
37610;BME280;23457;51.966;8.230;2023-09-30T10:53:28;101972.13;;;19.12;83.34
37610;BME280;23457;51.966;8.230;2023-09-30T10:55:56;101983.53;;;19.05;82.20
37610;BME280;23457;51.966;8.230;2023-09-30T10:58:40;101992.28;;;18.91;83.94
37610;BME280;23457;51.966;8.230;2023-09-30T11:01:07;102000.13;;;18.61;85.97
37610;BME280;23457;51.966;8.230;2023-09-30T11:03:34;102002.81;;;19.01;86.96
37610;BME280;23457;51.966;8.230;2023-09-30T11:06:02;101993.19;;;19.09;85.71
37610;BME280;23457;51.966;8.230;2023-09-30T11:08:41;102004.59;;;18.94;84.73
37610;BME280;23457;51.966;8.230;2023-09-30T11:11:10;102001.13;;;19.12;87.24
37610;BME280;23457;51.966;8.230;2023-09-30T11:13:37;102004.66;;;19.72;86.10
37610;BME280;23457;51.966;8.230;2023-09-30T11:16:05;102009.84;;;20.02;81.47
37610;BME280;23457;51.966;8.230;2023-09-30T11:18:32;102019.59;;;19.88;76.88
37610;BME280;23457;51.966;8.230;2023-09-30T11:21:09;102011.66;;;19.85;76.82
37610;BME280;23457;51.966;8.230;2023-09-30T11:23:37;102011.66;;;19.79;77.51
37610;BME280;23457;51.966;8.230;2023-09-30T11:26:04;102002.81;;;20.13;75.01
37610;BME280;23457;51.966;8.230;2023-09-30T11:28:41;101997.38;;;20.53;76.77
37610;BME280;23457;51.966;8.230;2023-09-30T11:31:12;102006.91;;;20.86;73.88
37610;BME280;23457;51.966;8.230;2023-09-30T11:33:50;102010.19;;;21.24;63.78
37610;BME280;23457;51.966;8.230;2023-09-30T11:36:19;102005.00;;;21.03;70.17
37610;BME280;23457;51.966;8.230;2023-09-30T11:38:48;101991.03;;;20.89;70.01
37610;BME280;23457;51.966;8.230;2023-09-30T11:41:16;101994.50;;;20.94;69.56
37610;BME280;23457;51.966;8.230;2023-09-30T11:44:01;101998.00;;;20.99;69.28
37610;BME280;23457;51.966;8.230;2023-09-30T11:46:28;101997.28;;;20.71;66.21
37610;BME280;23457;51.966;8.230;2023-09-30T11:48:57;101985.09;;;20.47;67.06
37610;BME280;23457;51.966;8.230;2023-09-30T11:51:28;101984.09;;;20.71;65.94
37610;BME280;23457;51.966;8.230;2023-09-30T11:53:55;101977.94;;;20.66;66.71
37610;BME280;23457;51.966;8.230;2023-09-30T11:56:25;101965.28;;;21.21;66.99
37610;BME280;23457;51.966;8.230;2023-09-30T11:58:56;101973.94;;;21.40;62.81
37610;BME280;23457;51.966;8.230;2023-09-30T12:01:24;101974.00;;;21.31;67.49
37610;BME280;23457;51.966;8.230;2023-09-30T12:03:52;101961.66;;;21.33;64.73
37610;BME280;23457;51.966;8.230;2023-09-30T12:06:24;101956.88;;;21.71;63.18
37610;BME280;23457;51.966;8.230;2023-09-30T12:08:51;101953.53;;;21.53;62.89
37610;BME280;23457;51.966;8.230;2023-09-30T12:11:18;101959.69;;;21.53;63.31
37610;BME280;23457;51.966;8.230;2023-09-30T12:13:46;101959.63;;;21.59;64.25
37610;BME280;23457;51.966;8.230;2023-09-30T12:16:16;101960.66;;;21.44;65.42
37610;BME280;23457;51.966;8.230;2023-09-30T12:18:43;101957.72;;;21.73;63.90
37610;BME280;23457;51.966;8.230;2023-09-30T12:21:11;101944.25;;;21.95;64.30
37610;BME280;23457;51.966;8.230;2023-09-30T12:23:37;101947.69;;;22.04;62.06
37610;BME280;23457;51.966;8.230;2023-09-30T12:26:04;101937.16;;;22.03;60.98
37610;BME280;23457;51.966;8.230;2023-09-30T12:28:40;101936.19;;;22.08;60.25
37610;BME280;23457;51.966;8.230;2023-09-30T12:31:07;101948.16;;;22.38;63.23
37610;BME280;23457;51.966;8.230;2023-09-30T12:33:34;101941.09;;;22.39;58.91
37610;BME280;23457;51.966;8.230;2023-09-30T12:36:01;101937.53;;;22.41;61.77
37610;BME280;23457;51.966;8.230;2023-09-30T12:38:28;101937.22;;;21.92;59.22
37610;BME280;23457;51.966;8.230;2023-09-30T12:40:55;101936.97;;;21.31;61.03
37610;BME280;23457;51.966;8.230;2023-09-30T12:43:24;101937.34;;;20.79;63.70
37610;BME280;23457;51.966;8.230;2023-09-30T12:45:51;101934.44;;;21.22;62.99
37610;BME280;23457;51.966;8.230;2023-09-30T12:48:18;101931.09;;;20.91;67.57
37610;BME280;23457;51.966;8.230;2023-09-30T12:50:45;101930.22;;;20.92;66.34
37610;BME280;23457;51.966;8.230;2023-09-30T12:53:12;101923.16;;;20.97;66.49
37610;BME280;23457;51.966;8.230;2023-09-30T12:55:39;101923.06;;;21.06;62.25
37610;BME280;23457;51.966;8.230;2023-09-30T12:58:06;101925.31;;;20.38;61.80
37610;BME280;23457;51.966;8.230;2023-09-30T13:00:32;101920.84;;;20.48;63.92
37610;BME280;23457;51.966;8.230;2023-09-30T13:03:03;101925.69;;;21.06;62.12
37610;BME280;23457;51.966;8.230;2023-09-30T13:05:30;101911.41;;;21.34;61.36
37610;BME280;23457;51.966;8.230;2023-09-30T13:07:57;101915.59;;;21.55;59.11
37610;BME280;23457;51.966;8.230;2023-09-30T13:10:24;101915.78;;;21.37;59.73